createdAt,value
2023-02-27T00:00:46.855Z,65.89
2023-02-27T00:01:43.559Z,65.11
2023-02-27T00:02:44.546Z,64.01
2023-02-27T00:03:41.190Z,62.84
2023-02-27T00:04:37.858Z,62.08
2023-02-27T00:05:34.442Z,61.65
2023-02-27T00:06:31.405Z,61.35
2023-02-27T00:07:28.877Z,60.75
2023-02-27T00:08:25.517Z,60.79
2023-02-27T00:09:22.206Z,62.11
2023-02-27T00:10:19.131Z,62.65
2023-02-27T00:11:15.861Z,64.52
2023-02-27T00:12:12.600Z,65.13
2023-02-27T00:13:10.240Z,64.78
2023-02-27T00:14:06.949Z,63.77
2023-02-27T00:15:14.927Z,63.87
2023-02-27T00:16:12.956Z,64.23
2023-02-27T00:17:09.711Z,64.75
2023-02-27T00:18:07.702Z,64.68
2023-02-27T00:19:04.979Z,65.94
2023-02-27T00:20:01.812Z,66.30
2023-02-27T00:20:58.459Z,66.02
2023-02-27T00:21:55.207Z,65.52
2023-02-27T00:22:52.085Z,65.52
2023-02-27T00:23:48.913Z,65.64
2023-02-27T00:24:45.536Z,66.03
2023-02-27T00:25:42.386Z,67.56
2023-02-27T00:26:39.393Z,67.37
2023-02-27T00:27:37.078Z,66.29
2023-02-27T00:28:33.856Z,66.17
2023-02-27T00:29:30.394Z,67.46
2023-02-27T00:30:27.581Z,67.11
2023-02-27T00:31:24.503Z,66.86
2023-02-27T00:32:21.371Z,66.75
2023-02-27T00:33:18.095Z,65.28
2023-02-27T00:34:15.803Z,65.27
2023-02-27T00:35:12.766Z,65.77
2023-02-27T00:36:09.469Z,65.99
2023-02-27T00:37:06.136Z,66.17
2023-02-27T00:38:02.862Z,66.25
2023-02-27T00:38:59.491Z,66.27
2023-02-27T00:39:56.173Z,66.10
2023-02-27T00:40:52.992Z,65.90
2023-02-27T00:41:49.583Z,64.84
2023-02-27T00:42:48.636Z,64.82
2023-02-27T00:43:45.510Z,63.85
2023-02-27T00:44:42.197Z,63.43
2023-02-27T00:45:38.805Z,63.84
2023-02-27T00:46:35.371Z,64.50
2023-02-27T00:47:33.793Z,64.53
2023-02-27T00:48:30.514Z,65.08
2023-02-27T00:49:27.331Z,64.95
2023-02-27T00:50:24.207Z,65.41
2023-02-27T00:51:21.985Z,66.20
2023-02-27T00:52:18.620Z,66.56
2023-02-27T00:53:15.198Z,66.22
2023-02-27T00:54:11.863Z,66.15
2023-02-27T00:55:09.706Z,65.92
2023-02-27T00:56:06.629Z,66.20
2023-02-27T00:57:03.521Z,66.48
2023-02-27T00:58:00.153Z,67.00
2023-02-27T00:58:56.731Z,66.78
2023-02-27T00:59:53.332Z,66.68
2023-02-27T01:00:49.929Z,67.09
2023-02-27T01:01:46.580Z,67.50
2023-02-27T01:02:43.350Z,67.14
2023-02-27T01:03:39.951Z,67.25
2023-02-27T01:04:36.732Z,67.78
2023-02-27T01:05:33.387Z,67.54
2023-02-27T01:06:31.141Z,67.85
2023-02-27T01:07:27.877Z,67.24
2023-02-27T01:08:24.504Z,67.24
2023-02-27T01:09:21.305Z,66.97
2023-02-27T01:10:18.142Z,67.51
2023-02-27T01:11:15.015Z,68.13
2023-02-27T01:12:11.651Z,67.79
2023-02-27T01:13:10.322Z,67.54
2023-02-27T01:14:07.933Z,67.16
2023-02-27T01:15:06.309Z,67.23
2023-02-27T01:16:03.022Z,67.50
2023-02-27T01:16:59.653Z,67.28
2023-02-27T01:17:56.295Z,66.77
2023-02-27T01:18:53.164Z,66.67
2023-02-27T01:19:49.908Z,67.22
2023-02-27T01:20:46.502Z,67.22
2023-02-27T01:21:43.242Z,66.90
2023-02-27T01:22:40.398Z,66.32
2023-02-27T01:23:37.101Z,66.24
2023-02-27T01:24:33.840Z,66.62
2023-02-27T01:25:30.515Z,66.40
2023-02-27T01:26:27.230Z,66.70
2023-02-27T01:27:23.799Z,67.02
2023-02-27T01:28:21.251Z,66.52
2023-02-27T01:29:17.888Z,66.10
2023-02-27T01:30:16.247Z,65.87
2023-02-27T01:31:12.887Z,65.37
2023-02-27T01:32:09.635Z,64.96
2023-02-27T01:33:06.989Z,64.16
2023-02-27T01:34:03.609Z,64.01
2023-02-27T01:35:00.189Z,63.76
2023-02-27T01:35:56.895Z,63.06
2023-02-27T01:36:53.546Z,62.44
2023-02-27T01:37:50.151Z,62.40
2023-02-27T01:38:46.886Z,63.08
2023-02-27T01:39:43.573Z,63.87
2023-02-27T01:40:41.519Z,63.73
2023-02-27T01:41:38.096Z,63.72
2023-02-27T01:42:34.911Z,63.89
2023-02-27T01:43:31.572Z,64.23
2023-02-27T01:44:30.749Z,64.47
2023-02-27T01:45:27.359Z,63.78
2023-02-27T01:46:25.642Z,63.76
2023-02-27T01:47:22.267Z,63.62
2023-02-27T01:48:27.081Z,63.75
2023-02-27T01:49:34.459Z,63.30
2023-02-27T01:50:32.124Z,63.47
2023-02-27T01:51:33.770Z,63.24
2023-02-27T01:52:31.841Z,62.85
2023-02-27T01:53:32.641Z,62.94
2023-02-27T01:54:32.154Z,63.40
2023-02-27T01:55:33.561Z,63.44
2023-02-27T01:56:32.131Z,62.63
2023-02-27T01:57:29.103Z,63.10
2023-02-27T01:58:27.025Z,62.72
2023-02-27T01:59:23.723Z,62.87
2023-02-27T02:00:20.859Z,63.24
2023-02-27T02:01:17.748Z,62.43
2023-02-27T02:02:30.918Z,61.88
2023-02-27T02:03:33.102Z,63.39
2023-02-27T02:04:36.457Z,64.10
2023-02-27T02:05:33.911Z,64.17
2023-02-27T02:06:34.394Z,64.06
2023-02-27T02:07:31.020Z,64.57
2023-02-27T02:08:30.906Z,65.08
2023-02-27T02:09:29.013Z,65.42
2023-02-27T02:10:26.462Z,65.56
2023-02-27T02:11:24.999Z,65.19
2023-02-27T02:12:26.676Z,65.12
2023-02-27T02:13:23.541Z,65.07
2023-02-27T02:14:20.120Z,64.95
2023-02-27T02:15:17.374Z,64.98
2023-02-27T02:16:29.250Z,65.05
2023-02-27T02:17:45.494Z,64.20
2023-02-27T02:18:54.265Z,64.07
2023-02-27T02:20:18.315Z,65.81
2023-02-27T02:21:20.798Z,68.10
2023-02-27T02:22:26.558Z,69.71
2023-02-27T02:23:52.847Z,72.39
2023-02-27T02:25:12.810Z,75.13
2023-02-27T02:26:24.842Z,76.12
2023-02-27T02:27:30.533Z,78.36
2023-02-27T02:28:45.645Z,81.04
2023-02-27T02:30:17.354Z,83.51
2023-02-27T02:31:43.365Z,85.65
2023-02-27T02:32:49.094Z,88.08
2023-02-27T02:34:07.894Z,89.10
2023-02-27T02:35:36.030Z,90.30
2023-02-27T02:37:31.408Z,91.46
2023-02-27T02:38:44.632Z,92.35
2023-02-27T02:40:10.519Z,93.60
2023-02-27T02:41:27.467Z,94.75
2023-02-27T02:42:32.072Z,95.52
2023-02-27T02:43:47.425Z,96.18
2023-02-27T02:45:12.132Z,96.73
2023-02-27T02:46:41.987Z,96.91
2023-02-27T02:47:38.510Z,96.49
2023-02-27T02:49:00.377Z,96.37
2023-02-27T02:50:09.044Z,95.88
2023-02-27T02:51:11.652Z,95.76
2023-02-27T02:52:46.537Z,95.67
2023-02-27T02:53:51.806Z,95.81
2023-02-27T02:54:51.074Z,95.59
2023-02-27T02:55:58.427Z,95.87
2023-02-27T02:57:05.432Z,95.32
2023-02-27T02:58:32.129Z,95.50
2023-02-27T02:59:55.523Z,95.54
2023-02-27T03:01:25.407Z,95.04
2023-02-27T03:02:28.324Z,94.49
2023-02-27T03:03:37.102Z,94.83
2023-02-27T03:04:43.139Z,94.97
2023-02-27T03:05:48.074Z,95.80
2023-02-27T03:06:52.534Z,96.26
2023-02-27T03:08:11.005Z,97.21
2023-02-27T03:09:16.514Z,97.50
2023-02-27T03:10:21.714Z,97.16
2023-02-27T03:11:18.542Z,96.71
2023-02-27T03:12:20.335Z,96.79
2023-02-27T03:13:30.826Z,96.71
2023-02-27T03:14:47.033Z,96.86
2023-02-27T03:16:30.891Z,97.01
2023-02-27T03:18:04.953Z,96.90
2023-02-27T03:19:10.590Z,96.96
2023-02-27T03:20:12.504Z,96.77
2023-02-27T03:21:16.652Z,97.01
2023-02-27T03:22:22.149Z,96.78
2023-02-27T03:23:42.735Z,97.04
2023-02-27T03:24:43.473Z,96.90
2023-02-27T03:25:46.170Z,97.23
2023-02-27T03:26:45.590Z,97.15
2023-02-27T03:27:52.150Z,96.99
2023-02-27T03:29:04.124Z,97.07
2023-02-27T03:30:03.700Z,96.63
2023-02-27T03:31:20.463Z,96.64
2023-02-27T03:32:22.994Z,96.67
2023-02-27T03:33:19.467Z,96.36
2023-02-27T03:34:22.213Z,96.48
2023-02-27T03:35:18.967Z,96.76
2023-02-27T03:36:48.516Z,97.24
2023-02-27T03:38:08.685Z,97.02
2023-02-27T03:39:32.782Z,95.54
2023-02-27T03:41:03.943Z,94.31
2023-02-27T03:42:20.409Z,94.31
2023-02-27T03:43:42.457Z,94.14
2023-02-27T03:44:51.588Z,93.80
2023-02-27T03:46:05.498Z,93.23
2023-02-27T03:47:02.694Z,92.89
2023-02-27T03:48:00.677Z,92.69
2023-02-27T03:48:57.275Z,93.23
2023-02-27T03:49:54.127Z,93.49
2023-02-27T03:50:50.853Z,93.75
2023-02-27T03:51:47.693Z,94.11
2023-02-27T03:52:45.541Z,94.84
2023-02-27T03:53:59.506Z,95.70
2023-02-27T03:55:09.850Z,95.34
2023-02-27T03:56:09.155Z,95.65
2023-02-27T03:57:07.964Z,95.64
2023-02-27T03:58:05.157Z,95.60
2023-02-27T03:59:01.730Z,95.56
2023-02-27T03:59:59.091Z,95.65
2023-02-27T04:00:55.724Z,95.68
2023-02-27T04:01:53.302Z,95.09
2023-02-27T04:02:53.152Z,94.71
2023-02-27T04:03:55.910Z,94.13
2023-02-27T04:04:52.466Z,92.89
2023-02-27T04:05:49.338Z,92.85
2023-02-27T04:07:09.410Z,92.86
2023-02-27T04:08:39.882Z,93.41
2023-02-27T04:09:58.453Z,93.45
2023-02-27T04:11:22.245Z,92.77
2023-02-27T04:12:18.754Z,93.29
2023-02-27T04:13:21.098Z,93.49
2023-02-27T04:14:30.914Z,94.16
2023-02-27T04:15:33.525Z,94.07
2023-02-27T04:16:50.938Z,94.29
2023-02-27T04:17:47.583Z,93.41
2023-02-27T04:19:05.828Z,93.41
2023-02-27T04:20:30.066Z,93.27
2023-02-27T04:21:51.161Z,93.63
2023-02-27T04:22:50.452Z,94.29
2023-02-27T04:23:47.004Z,94.57
2023-02-27T04:24:58.414Z,94.61
2023-02-27T04:26:22.729Z,94.77
2023-02-27T04:27:48.219Z,94.26
2023-02-27T04:28:54.311Z,93.44
2023-02-27T04:30:00.889Z,93.35
2023-02-27T04:31:17.506Z,93.95
2023-02-27T04:32:34.980Z,94.18
2023-02-27T04:33:41.048Z,95.14
2023-02-27T04:34:52.100Z,95.23
2023-02-27T04:35:54.662Z,94.66
2023-02-27T04:36:56.301Z,94.58
2023-02-27T04:37:52.936Z,94.06
2023-02-27T04:38:57.401Z,93.57
2023-02-27T04:40:05.471Z,93.56
2023-02-27T04:41:08.833Z,93.41
2023-02-27T04:42:29.106Z,93.46
2023-02-27T04:43:27.971Z,93.30
2023-02-27T04:44:26.214Z,92.65
2023-02-27T04:45:27.870Z,92.38
2023-02-27T04:46:28.792Z,92.10
2023-02-27T04:47:30.375Z,91.40
2023-02-27T04:48:33.214Z,90.63
2023-02-27T04:49:38.413Z,90.06
2023-02-27T04:50:44.558Z,90.11
2023-02-27T04:51:56.830Z,90.13
2023-02-27T04:53:02.018Z,89.59
2023-02-27T04:54:04.505Z,90.38
2023-02-27T04:55:27.130Z,91.12
2023-02-27T04:56:30.757Z,92.24
2023-02-27T04:57:38.195Z,93.11
2023-02-27T04:58:40.774Z,93.68
2023-02-27T04:59:46.806Z,93.68
2023-02-27T05:00:47.774Z,94.07
2023-02-27T05:01:54.172Z,94.44
2023-02-27T05:02:56.576Z,94.57
2023-02-27T05:03:55.205Z,94.32
2023-02-27T05:04:58.101Z,94.83
2023-02-27T05:06:01.183Z,95.22
2023-02-27T05:07:01.131Z,95.28
2023-02-27T05:08:09.393Z,95.14
2023-02-27T05:09:20.329Z,94.84
2023-02-27T05:10:34.301Z,94.55
2023-02-27T05:11:55.202Z,94.25
2023-02-27T05:12:57.110Z,94.73
2023-02-27T05:14:08.357Z,94.85
2023-02-27T05:15:13.910Z,94.20
2023-02-27T05:16:13.508Z,92.90
2023-02-27T05:17:17.889Z,92.43
2023-02-27T05:18:19.211Z,92.11
2023-02-27T05:19:18.380Z,91.53
2023-02-27T05:20:17.382Z,91.02
2023-02-27T05:21:29.320Z,90.85
2023-02-27T05:22:41.199Z,89.31
2023-02-27T05:23:56.210Z,89.22
2023-02-27T05:24:52.879Z,90.20
2023-02-27T05:26:14.393Z,90.65
2023-02-27T05:27:14.053Z,90.27
2023-02-27T05:28:21.550Z,90.07
2023-02-27T05:29:52.316Z,91.05
2023-02-27T05:30:57.475Z,90.83
2023-02-27T05:32:03.341Z,90.57
2023-02-27T05:33:25.798Z,90.80
2023-02-27T05:34:44.674Z,91.19
2023-02-27T05:35:59.472Z,91.29
2023-02-27T05:37:02.300Z,91.49
2023-02-27T05:38:06.328Z,91.56
2023-02-27T05:39:06.243Z,92.08
2023-02-27T05:40:08.486Z,92.08
2023-02-27T05:41:19.279Z,91.27
2023-02-27T05:42:23.522Z,90.22
2023-02-27T05:43:28.842Z,90.29
2023-02-27T05:44:34.748Z,90.80
2023-02-27T05:45:35.237Z,91.54
2023-02-27T05:46:36.056Z,91.83
2023-02-27T05:47:36.205Z,92.76
2023-02-27T05:48:38.904Z,93.14
2023-02-27T05:49:43.999Z,92.69
2023-02-27T05:50:42.401Z,92.64
2023-02-27T05:51:43.040Z,92.88
2023-02-27T05:52:41.569Z,93.04
2023-02-27T05:53:43.977Z,93.17
2023-02-27T05:54:53.143Z,92.90
2023-02-27T05:55:53.368Z,92.91
2023-02-27T05:56:53.490Z,92.54
2023-02-27T05:58:04.481Z,92.54
2023-02-27T05:59:03.503Z,92.31
2023-02-27T06:00:11.038Z,91.77
2023-02-27T06:01:10.097Z,92.53
2023-02-27T06:02:07.113Z,92.75
2023-02-27T06:03:04.119Z,93.23
2023-02-27T06:04:00.823Z,93.21
2023-02-27T06:04:57.561Z,93.40
2023-02-27T06:05:57.274Z,93.19
2023-02-27T06:06:54.331Z,92.79
2023-02-27T06:07:51.872Z,92.44
2023-02-27T06:08:48.595Z,91.92
2023-02-27T06:09:45.670Z,91.74
2023-02-27T06:10:42.240Z,92.28
2023-02-27T06:11:38.930Z,92.68
2023-02-27T06:12:35.577Z,93.62
2023-02-27T06:13:32.673Z,94.14
2023-02-27T06:14:29.349Z,94.40
2023-02-27T06:15:26.076Z,94.06
2023-02-27T06:16:22.823Z,93.25
2023-02-27T06:17:19.487Z,92.16
2023-02-27T06:18:17.058Z,91.71
2023-02-27T06:19:13.724Z,90.23
2023-02-27T06:20:11.228Z,89.04
2023-02-27T06:21:07.963Z,88.14
2023-02-27T06:22:04.771Z,87.68
2023-02-27T06:23:01.486Z,87.67
2023-02-27T06:23:58.110Z,87.17
2023-02-27T06:24:54.731Z,87.70
2023-02-27T06:25:51.301Z,87.79
2023-02-27T06:26:48.027Z,88.09
2023-02-27T06:27:44.650Z,87.15
2023-02-27T06:28:42.495Z,87.54
2023-02-27T06:29:39.102Z,87.89
2023-02-27T06:30:36.308Z,89.58
2023-02-27T06:31:32.953Z,89.87
2023-02-27T06:32:29.638Z,90.20
2023-02-27T06:33:26.449Z,89.86
2023-02-27T06:34:23.125Z,90.07
2023-02-27T06:35:19.815Z,90.33
2023-02-27T06:36:16.431Z,90.35
2023-02-27T06:37:13.046Z,90.57
2023-02-27T06:38:09.692Z,91.57
2023-02-27T06:39:06.804Z,92.63
2023-02-27T06:40:05.929Z,93.15
2023-02-27T06:41:04.385Z,92.49
2023-02-27T06:42:01.153Z,92.83
2023-02-27T06:42:57.707Z,91.86
2023-02-27T06:43:55.759Z,90.68
2023-02-27T06:44:52.515Z,90.35
2023-02-27T06:45:49.850Z,90.09
2023-02-27T06:46:46.464Z,89.71
2023-02-27T06:47:43.269Z,90.07
2023-02-27T06:48:39.928Z,90.81
2023-02-27T06:49:36.591Z,90.67
2023-02-27T06:50:33.200Z,90.24
2023-02-27T06:51:29.799Z,88.63
2023-02-27T06:52:26.717Z,89.08
2023-02-27T06:53:25.057Z,89.10
2023-02-27T06:54:21.679Z,89.44
2023-02-27T06:55:20.909Z,89.63
2023-02-27T06:56:17.631Z,88.35
2023-02-27T06:57:14.252Z,88.36
2023-02-27T06:58:10.899Z,88.96
2023-02-27T06:59:07.648Z,88.38
2023-02-27T07:00:07.170Z,87.91
2023-02-27T07:01:03.880Z,86.95
2023-02-27T07:02:01.285Z,87.53
2023-02-27T07:02:57.882Z,87.36
2023-02-27T07:03:54.502Z,85.73
2023-02-27T07:04:51.800Z,85.56
2023-02-27T07:05:48.479Z,86.74
2023-02-27T07:07:33.185Z,87.35
2023-02-27T07:08:03.741Z,87.67
2023-02-27T07:09:06.507Z,87.72
2023-02-27T07:10:05.203Z,88.53
2023-02-27T07:11:01.838Z,89.64
2023-02-27T07:11:58.542Z,88.53
2023-02-27T07:12:55.262Z,88.97
2023-02-27T07:13:51.914Z,88.53
2023-02-27T07:14:48.550Z,88.32
2023-02-27T07:15:45.264Z,87.82
2023-02-27T07:16:42.145Z,87.79
2023-02-27T07:17:38.757Z,88.07
2023-02-27T07:18:35.454Z,87.93
2023-02-27T07:19:33.731Z,88.48
2023-02-27T07:20:30.360Z,88.33
2023-02-27T07:21:27.041Z,87.89
2023-02-27T07:22:23.630Z,85.96
2023-02-27T07:23:20.277Z,84.37
2023-02-27T07:24:17.290Z,85.11
2023-02-27T07:25:13.886Z,85.73
2023-02-27T07:26:10.494Z,86.64
2023-02-27T07:27:07.123Z,86.08
2023-02-27T07:28:05.177Z,86.57
2023-02-27T07:29:01.998Z,87.17
2023-02-27T07:29:58.731Z,87.80
2023-02-27T07:30:56.241Z,86.93
2023-02-27T07:31:52.899Z,86.31
2023-02-27T07:32:50.727Z,86.34
2023-02-27T07:33:47.299Z,87.10
2023-02-27T07:34:43.946Z,86.63
2023-02-27T07:35:40.670Z,85.92
2023-02-27T07:36:38.193Z,85.81
2023-02-27T07:37:34.816Z,84.79
2023-02-27T07:38:32.433Z,85.30
2023-02-27T07:39:29.035Z,85.40
2023-02-27T07:40:25.599Z,86.02
2023-02-27T07:41:30.339Z,86.06
2023-02-27T07:42:27.970Z,84.59
2023-02-27T07:43:25.298Z,84.69
2023-02-27T07:44:21.880Z,85.79
2023-02-27T07:45:18.600Z,85.33
2023-02-27T07:46:15.185Z,85.08
2023-02-27T07:47:11.850Z,84.36
2023-02-27T07:48:08.753Z,84.76
2023-02-27T07:49:05.328Z,85.24
2023-02-27T07:50:02.018Z,84.21
2023-02-27T07:50:58.917Z,83.69
2023-02-27T07:51:56.366Z,83.10
2023-02-27T07:52:53.278Z,83.31
2023-02-27T07:53:49.853Z,84.35
2023-02-27T07:54:46.562Z,83.82
2023-02-27T07:55:43.128Z,83.46
2023-02-27T07:56:39.740Z,83.43
2023-02-27T07:57:36.720Z,84.04
2023-02-27T07:58:33.355Z,85.04
2023-02-27T07:59:30.142Z,85.36
2023-02-27T08:00:26.922Z,84.65
2023-02-27T08:01:23.691Z,84.44
2023-02-27T08:02:20.353Z,83.88
2023-02-27T08:03:17.010Z,83.84
2023-02-27T08:04:13.601Z,84.22
2023-02-27T08:05:10.748Z,84.51
2023-02-27T08:06:07.686Z,84.33
2023-02-27T08:07:05.203Z,84.39
2023-02-27T08:08:02.409Z,84.13
2023-02-27T08:08:59.008Z,84.42
2023-02-27T08:09:55.592Z,84.78
2023-02-27T08:10:52.300Z,82.91
2023-02-27T08:11:49.329Z,80.03
2023-02-27T08:12:46.092Z,79.56
2023-02-27T08:13:59.605Z,80.40
2023-02-27T08:14:57.360Z,81.90
2023-02-27T08:15:54.355Z,83.46
2023-02-27T08:16:50.938Z,83.99
2023-02-27T08:17:48.222Z,84.11
2023-02-27T08:18:44.913Z,84.61
2023-02-27T08:19:41.692Z,84.34
2023-02-27T08:20:38.287Z,82.91
2023-02-27T08:21:35.005Z,82.46
2023-02-27T08:22:32.550Z,83.34
2023-02-27T08:23:30.342Z,81.59
2023-02-27T08:24:27.137Z,80.96
2023-02-27T08:25:24.548Z,81.58
2023-02-27T08:26:21.526Z,80.26
2023-02-27T08:27:18.153Z,79.54
2023-02-27T08:28:14.869Z,79.70
2023-02-27T08:29:11.456Z,78.19
2023-02-27T08:30:10.330Z,79.44
2023-02-27T08:31:07.274Z,80.80
2023-02-27T08:32:04.934Z,82.86
2023-02-27T08:33:01.835Z,82.09
2023-02-27T08:34:09.532Z,81.43
2023-02-27T08:35:07.513Z,82.62
2023-02-27T08:36:04.533Z,83.38
2023-02-27T08:37:01.510Z,84.36
2023-02-27T08:37:58.290Z,83.99
2023-02-27T08:38:55.025Z,83.33
2023-02-27T08:39:51.843Z,83.29
2023-02-27T08:40:55.878Z,83.44
2023-02-27T08:41:52.709Z,82.59
2023-02-27T08:42:51.698Z,81.47
2023-02-27T08:43:49.046Z,80.69
2023-02-27T08:44:45.673Z,80.22
2023-02-27T08:45:42.312Z,80.69
2023-02-27T08:46:39.040Z,80.28
2023-02-27T08:47:35.761Z,80.19
2023-02-27T08:48:32.371Z,77.91
2023-02-27T08:49:30.376Z,77.48
2023-02-27T08:50:27.097Z,75.48
2023-02-27T08:51:23.800Z,74.09
2023-02-27T08:52:20.387Z,74.78
2023-02-27T08:53:17.112Z,78.09
2023-02-27T08:54:13.745Z,77.38
2023-02-27T08:55:10.757Z,78.46
2023-02-27T08:56:07.524Z,79.13
2023-02-27T08:57:04.655Z,78.40
2023-02-27T08:58:01.449Z,77.36
2023-02-27T08:58:58.048Z,77.15
2023-02-27T08:59:54.650Z,76.65
2023-02-27T09:00:51.391Z,76.53
2023-02-27T09:01:48.030Z,76.87
2023-02-27T09:02:44.717Z,76.95
2023-02-27T09:03:41.506Z,76.88
2023-02-27T09:04:38.072Z,77.80
2023-02-27T09:05:35.481Z,78.10
2023-02-27T09:06:33.691Z,78.76
2023-02-27T09:07:30.308Z,77.16
2023-02-27T09:08:26.904Z,75.92
2023-02-27T09:09:27.474Z,75.08
2023-02-27T09:10:24.198Z,75.13
2023-02-27T09:11:20.781Z,73.98
2023-02-27T09:12:17.402Z,75.52
2023-02-27T09:13:14.454Z,74.67
2023-02-27T09:14:11.115Z,75.15
2023-02-27T09:15:08.403Z,76.28
2023-02-27T09:16:05.263Z,74.66
2023-02-27T09:17:01.950Z,75.59
2023-02-27T09:18:03.112Z,74.04
2023-02-27T09:18:59.840Z,73.91
2023-02-27T09:19:57.481Z,74.98
2023-02-27T09:20:56.363Z,74.23
2023-02-27T09:21:52.953Z,73.43
2023-02-27T09:22:49.601Z,72.69
2023-02-27T09:23:46.437Z,75.16
2023-02-27T09:24:43.071Z,75.19
2023-02-27T09:25:39.640Z,76.17
2023-02-27T09:26:45.164Z,75.57
2023-02-27T09:27:42.664Z,76.52
2023-02-27T09:28:41.954Z,74.79
2023-02-27T09:29:38.508Z,74.67
2023-02-27T09:30:35.137Z,75.17
2023-02-27T09:31:33.400Z,76.53
2023-02-27T09:32:30.549Z,76.59
2023-02-27T09:33:29.336Z,76.95
2023-02-27T09:34:25.991Z,75.74
2023-02-27T09:35:22.782Z,74.55
2023-02-27T09:36:19.388Z,75.05
2023-02-27T09:37:16.317Z,74.53
2023-02-27T09:38:13.810Z,72.43
2023-02-27T09:39:10.492Z,72.60
2023-02-27T09:40:07.961Z,73.20
2023-02-27T09:41:06.337Z,72.13
2023-02-27T09:42:15.521Z,72.68
2023-02-27T09:43:20.876Z,72.86
2023-02-27T09:44:39.785Z,74.08
2023-02-27T09:45:42.832Z,74.05
2023-02-27T09:46:39.647Z,73.33
2023-02-27T09:47:50.682Z,71.77
2023-02-27T09:48:52.096Z,72.01
2023-02-27T09:50:27.740Z,72.47
2023-02-27T09:51:25.562Z,73.13
2023-02-27T09:52:22.419Z,70.72
2023-02-27T09:53:27.126Z,69.92
2023-02-27T09:54:25.967Z,71.88
2023-02-27T09:55:23.402Z,72.08
2023-02-27T09:56:32.599Z,70.85
2023-02-27T09:57:43.887Z,71.40
2023-02-27T09:58:51.599Z,71.09
2023-02-27T10:00:00.183Z,71.24
2023-02-27T10:01:10.094Z,71.00
2023-02-27T10:02:34.475Z,72.22
2023-02-27T10:04:11.839Z,73.90
2023-02-27T10:05:36.075Z,71.45
2023-02-27T10:07:07.999Z,72.72
2023-02-27T10:08:10.409Z,70.05
2023-02-27T10:09:29.708Z,71.09
2023-02-27T10:11:01.011Z,72.06
2023-02-27T10:11:57.665Z,69.86
2023-02-27T10:13:29.959Z,70.35
2023-02-27T10:14:43.552Z,72.33
2023-02-27T10:15:47.845Z,71.34
2023-02-27T10:16:46.383Z,72.43
2023-02-27T10:17:48.445Z,71.47
2023-02-27T10:18:55.239Z,70.63
2023-02-27T10:19:53.494Z,70.12
2023-02-27T10:21:01.631Z,71.89
2023-02-27T10:22:01.116Z,69.30
2023-02-27T10:23:01.835Z,68.38
2023-02-27T10:24:02.860Z,68.75
2023-02-27T10:25:15.056Z,70.81
2023-02-27T10:26:36.195Z,73.13
2023-02-27T10:27:33.706Z,71.14
2023-02-27T10:28:32.086Z,72.01
2023-02-27T10:29:37.022Z,72.00
2023-02-27T10:30:34.936Z,71.52
2023-02-27T10:31:34.828Z,70.83
2023-02-27T10:32:35.659Z,70.75
2023-02-27T10:33:38.413Z,69.59
2023-02-27T10:34:37.287Z,68.31
2023-02-27T10:35:37.645Z,68.47
2023-02-27T10:36:34.945Z,67.92
2023-02-27T10:37:31.753Z,69.65
2023-02-27T10:38:35.460Z,67.21
2023-02-27T10:39:43.139Z,67.54
2023-02-27T10:40:42.482Z,66.93
2023-02-27T10:41:40.651Z,66.25
2023-02-27T10:42:41.366Z,68.27
2023-02-27T10:43:38.476Z,69.50
2023-02-27T10:44:35.131Z,69.11
2023-02-27T10:45:32.174Z,68.64
2023-02-27T10:46:32.247Z,67.91
2023-02-27T10:47:31.062Z,68.01
2023-02-27T10:48:28.016Z,67.48
2023-02-27T10:49:25.195Z,66.35
2023-02-27T10:50:35.131Z,65.08
2023-02-27T10:51:36.374Z,65.88
2023-02-27T10:52:33.018Z,66.89
2023-02-27T10:53:29.908Z,67.67
2023-02-27T10:54:26.702Z,68.30
2023-02-27T10:55:29.482Z,66.69
2023-02-27T10:56:27.996Z,66.17
2023-02-27T10:57:36.978Z,67.35
2023-02-27T10:58:37.749Z,65.69
2023-02-27T10:59:40.425Z,64.64
2023-02-27T11:00:53.686Z,67.47
2023-02-27T11:01:52.716Z,67.64
2023-02-27T11:02:52.157Z,65.07
2023-02-27T11:03:56.063Z,64.63
2023-02-27T11:04:54.698Z,66.71
2023-02-27T11:05:57.429Z,67.62
2023-02-27T11:06:55.177Z,66.20
2023-02-27T11:07:52.134Z,64.64
2023-02-27T11:09:28.918Z,65.51
2023-02-27T11:10:28.408Z,67.89
2023-02-27T11:11:28.878Z,68.13
2023-02-27T11:12:32.217Z,66.78
2023-02-27T11:13:35.314Z,65.27
2023-02-27T11:14:33.753Z,64.05
2023-02-27T11:15:37.088Z,64.69
2023-02-27T11:16:48.033Z,65.72
2023-02-27T11:17:44.657Z,67.10
2023-02-27T11:18:45.977Z,64.11
2023-02-27T11:19:42.522Z,64.29
2023-02-27T11:20:43.447Z,64.23
2023-02-27T11:21:40.042Z,64.81
2023-02-27T11:22:36.577Z,65.23
2023-02-27T11:23:33.944Z,64.97
2023-02-27T11:24:31.041Z,64.82
2023-02-27T11:25:27.621Z,64.41
2023-02-27T11:26:55.162Z,64.42
2023-02-27T11:27:52.367Z,63.26
2023-02-27T11:29:14.848Z,63.77
2023-02-27T11:30:28.868Z,60.84
2023-02-27T11:31:25.597Z,61.12
2023-02-27T11:32:24.415Z,62.60
2023-02-27T11:33:21.259Z,61.44
2023-02-27T11:34:25.859Z,61.23
2023-02-27T11:35:27.884Z,59.59
2023-02-27T11:36:39.819Z,59.46
2023-02-27T11:37:37.948Z,59.36
2023-02-27T11:38:34.877Z,59.39
2023-02-27T11:39:38.073Z,60.45
2023-02-27T11:40:40.173Z,60.04
2023-02-27T11:41:37.375Z,58.59
2023-02-27T11:42:36.503Z,60.34
2023-02-27T11:43:36.957Z,60.00
2023-02-27T11:44:49.911Z,61.64
2023-02-27T11:46:21.587Z,60.03
2023-02-27T11:47:20.216Z,63.16
2023-02-27T11:48:25.065Z,61.70
2023-02-27T11:49:29.514Z,61.97
2023-02-27T11:50:29.618Z,63.70
2023-02-27T11:51:57.087Z,63.39
2023-02-27T11:53:07.501Z,62.82
2023-02-27T11:54:22.167Z,62.76
2023-02-27T11:55:24.030Z,62.63
2023-02-27T11:56:28.688Z,60.82
2023-02-27T11:57:30.281Z,61.42
2023-02-27T11:58:34.965Z,61.27
2023-02-27T11:59:43.527Z,63.43
2023-02-27T12:00:45.605Z,63.00
2023-02-27T12:01:53.704Z,64.09
2023-02-27T12:03:16.390Z,62.57
2023-02-27T12:04:51.842Z,63.77
2023-02-27T12:05:54.705Z,63.86
2023-02-27T12:07:07.595Z,61.80
2023-02-27T12:08:30.277Z,59.39
2023-02-27T12:09:45.811Z,61.18
2023-02-27T12:11:14.636Z,62.09
2023-02-27T12:12:22.288Z,61.62
2023-02-27T12:13:23.748Z,62.87
2023-02-27T12:14:27.381Z,61.48
2023-02-27T12:15:48.855Z,63.91
2023-02-27T12:16:54.265Z,63.72
2023-02-27T12:17:59.645Z,64.93
2023-02-27T12:19:04.592Z,64.00
2023-02-27T12:20:08.065Z,62.80
2023-02-27T12:21:10.622Z,63.36
2023-02-27T12:22:24.990Z,63.27
2023-02-27T12:23:31.934Z,63.45
2023-02-27T12:24:36.885Z,62.80
2023-02-27T12:25:54.064Z,63.24
2023-02-27T12:27:01.826Z,63.36
2023-02-27T12:28:22.830Z,63.30
2023-02-27T12:29:28.643Z,63.58
2023-02-27T12:30:31.955Z,63.03
2023-02-27T12:31:46.892Z,62.49
2023-02-27T12:33:10.199Z,60.93
2023-02-27T12:34:37.285Z,61.80
2023-02-27T12:35:34.074Z,61.50
2023-02-27T12:36:31.311Z,61.40
2023-02-27T12:37:30.591Z,60.12
2023-02-27T12:38:27.576Z,59.92
2023-02-27T12:39:25.572Z,61.38
2023-02-27T12:40:30.201Z,59.56
2023-02-27T12:42:05.906Z,60.94
2023-02-27T12:43:19.440Z,60.54
2023-02-27T12:44:41.964Z,59.96
2023-02-27T12:45:57.385Z,58.55
2023-02-27T12:47:12.518Z,60.01
2023-02-27T12:48:23.677Z,57.58
2023-02-27T12:50:00.606Z,59.74
2023-02-27T12:51:31.155Z,59.40
2023-02-27T12:52:35.388Z,58.96
2023-02-27T12:53:57.325Z,58.55
2023-02-27T12:55:13.794Z,57.77
2023-02-27T12:56:17.270Z,58.59
2023-02-27T12:57:19.948Z,58.14
2023-02-27T12:58:57.016Z,60.47
2023-02-27T13:00:16.192Z,58.62
2023-02-27T13:01:23.977Z,58.89
2023-02-27T13:02:23.289Z,60.35
2023-02-27T13:03:41.049Z,60.22
2023-02-27T13:04:52.632Z,60.33
2023-02-27T13:05:59.250Z,62.18
2023-02-27T13:07:08.617Z,61.26
2023-02-27T13:08:23.803Z,61.34
2023-02-27T13:09:29.241Z,63.32
2023-02-27T13:10:33.522Z,64.06
2023-02-27T13:11:56.501Z,63.55
2023-02-27T13:13:15.925Z,62.89
2023-02-27T13:14:28.737Z,63.54
2023-02-27T13:15:31.432Z,64.33
2023-02-27T13:16:41.291Z,64.57
2023-02-27T13:17:39.807Z,64.09
2023-02-27T13:18:45.688Z,64.76
2023-02-27T13:19:46.866Z,65.54
2023-02-27T13:20:56.882Z,65.51
2023-02-27T13:22:09.016Z,65.86
2023-02-27T13:23:38.608Z,64.86
2023-02-27T13:24:44.732Z,65.68
2023-02-27T13:25:45.873Z,67.03
2023-02-27T13:26:46.861Z,67.00
2023-02-27T13:27:58.123Z,68.43
2023-02-27T13:28:56.065Z,70.13
2023-02-27T13:30:20.273Z,71.42
2023-02-27T13:31:29.764Z,72.63